sensor_id;sensor_type;location;lat;lon;timestamp;P1;durP1;ratioP1;P2;durP2;ratioP2
56419;SDS011;42323;52.170;7.538;2023-07-30T00:00:26;4.15;;;2.92;;
56419;SDS011;42323;52.170;7.538;2023-07-30T00:02:52;5.10;;;2.92;;
56419;SDS011;42323;52.170;7.538;2023-07-30T00:05:19;6.72;;;2.85;;
56419;SDS011;42323;52.170;7.538;2023-07-30T00:07:45;5.68;;;2.75;;
56419;SDS011;42323;52.170;7.538;2023-07-30T00:10:14;7.03;;;2.95;;
56419;SDS011;42323;52.170;7.538;2023-07-30T00:12:50;3.90;;;2.20;;
56419;SDS011;42323;52.170;7.538;2023-07-30T00:15:16;7.68;;;2.50;;
56419;SDS011;42323;52.170;7.538;2023-07-30T00:17:43;4.38;;;2.80;;
56419;SDS011;42323;52.170;7.538;2023-07-30T00:20:10;6.10;;;3.25;;
56419;SDS011;42323;52.170;7.538;2023-07-30T00:22:43;8.45;;;3.15;;
56419;SDS011;42323;52.170;7.538;2023-07-30T00:25:12;8.13;;;2.30;;
56419;SDS011;42323;52.170;7.538;2023-07-30T00:27:38;8.63;;;3.03;;
56419;SDS011;42323;52.170;7.538;2023-07-30T00:30:05;5.70;;;2.65;;
56419;SDS011;42323;52.170;7.538;2023-07-30T00:32:32;5.45;;;2.45;;
56419;SDS011;42323;52.170;7.538;2023-07-30T00:34:59;4.45;;;2.05;;
56419;SDS011;42323;52.170;7.538;2023-07-30T00:37:25;5.07;;;2.05;;
56419;SDS011;42323;52.170;7.538;2023-07-30T00:39:52;7.65;;;2.50;;
56419;SDS011;42323;52.170;7.538;2023-07-30T00:42:18;4.60;;;3.00;;
56419;SDS011;42323;52.170;7.538;2023-07-30T00:44:45;4.43;;;2.75;;
56419;SDS011;42323;52.170;7.538;2023-07-30T00:47:12;4.03;;;2.22;;
56419;SDS011;42323;52.170;7.538;2023-07-30T00:49:38;7.80;;;2.40;;
56419;SDS011;42323;52.170;7.538;2023-07-30T00:52:05;6.75;;;2.30;;
56419;SDS011;42323;52.170;7.538;2023-07-30T00:54:33;5.65;;;2.65;;
56419;SDS011;42323;52.170;7.538;2023-07-30T00:57:00;5.25;;;2.65;;
56419;SDS011;42323;52.170;7.538;2023-07-30T00:59:27;5.25;;;2.17;;
56419;SDS011;42323;52.170;7.538;2023-07-30T01:01:54;6.00;;;2.42;;
56419;SDS011;42323;52.170;7.538;2023-07-30T01:04:23;4.75;;;2.17;;
56419;SDS011;42323;52.170;7.538;2023-07-30T01:06:50;3.58;;;2.08;;
56419;SDS011;42323;52.170;7.538;2023-07-30T01:09:16;3.47;;;2.20;;
56419;SDS011;42323;52.170;7.538;2023-07-30T01:11:43;3.10;;;2.40;;
56419;SDS011;42323;52.170;7.538;2023-07-30T01:14:11;5.00;;;2.05;;
56419;SDS011;42323;52.170;7.538;2023-07-30T01:16:40;6.40;;;2.50;;
56419;SDS011;42323;52.170;7.538;2023-07-30T01:19:07;8.27;;;2.42;;
56419;SDS011;42323;52.170;7.538;2023-07-30T01:21:34;6.57;;;2.80;;
56419;SDS011;42323;52.170;7.538;2023-07-30T01:24:02;5.15;;;2.47;;
56419;SDS011;42323;52.170;7.538;2023-07-30T01:26:40;6.03;;;2.55;;
56419;SDS011;42323;52.170;7.538;2023-07-30T01:29:12;5.13;;;2.53;;
56419;SDS011;42323;52.170;7.538;2023-07-30T01:31:42;6.53;;;2.78;;
56419;SDS011;42323;52.170;7.538;2023-07-30T01:34:09;5.18;;;2.67;;
56419;SDS011;42323;52.170;7.538;2023-07-30T01:36:38;5.45;;;3.00;;
56419;SDS011;42323;52.170;7.538;2023-07-30T01:39:06;6.45;;;2.85;;
56419;SDS011;42323;52.170;7.538;2023-07-30T01:41:35;4.63;;;2.75;;
56419;SDS011;42323;52.170;7.538;2023-07-30T01:44:02;5.95;;;3.47;;
56419;SDS011;42323;52.170;7.538;2023-07-30T01:46:29;7.15;;;2.90;;
56419;SDS011;42323;52.170;7.538;2023-07-30T01:48:55;6.13;;;2.70;;
56419;SDS011;42323;52.170;7.538;2023-07-30T01:51:22;6.78;;;2.65;;
56419;SDS011;42323;52.170;7.538;2023-07-30T01:53:48;3.92;;;2.70;;
56419;SDS011;42323;52.170;7.538;2023-07-30T01:56:15;5.07;;;2.45;;
56419;SDS011;42323;52.170;7.538;2023-07-30T01:58:41;5.35;;;2.78;;
56419;SDS011;42323;52.170;7.538;2023-07-30T02:01:08;5.80;;;2.63;;
56419;SDS011;42323;52.170;7.538;2023-07-30T02:03:35;4.88;;;2.63;;
56419;SDS011;42323;52.170;7.538;2023-07-30T02:06:02;7.28;;;2.95;;
56419;SDS011;42323;52.170;7.538;2023-07-30T02:08:28;6.65;;;2.90;;
56419;SDS011;42323;52.170;7.538;2023-07-30T02:10:56;8.20;;;3.17;;
56419;SDS011;42323;52.170;7.538;2023-07-30T02:13:23;6.00;;;2.50;;
56419;SDS011;42323;52.170;7.538;2023-07-30T02:15:51;4.38;;;2.58;;
56419;SDS011;42323;52.170;7.538;2023-07-30T02:18:18;7.85;;;2.63;;
56419;SDS011;42323;52.170;7.538;2023-07-30T02:20:44;5.78;;;2.78;;
56419;SDS011;42323;52.170;7.538;2023-07-30T02:23:13;4.07;;;2.50;;
56419;SDS011;42323;52.170;7.538;2023-07-30T02:25:41;7.15;;;2.65;;
56419;SDS011;42323;52.170;7.538;2023-07-30T02:28:07;8.20;;;2.75;;
56419;SDS011;42323;52.170;7.538;2023-07-30T02:30:34;6.57;;;2.70;;
56419;SDS011;42323;52.170;7.538;2023-07-30T02:33:01;5.53;;;2.63;;
56419;SDS011;42323;52.170;7.538;2023-07-30T02:35:27;7.15;;;2.88;;
56419;SDS011;42323;52.170;7.538;2023-07-30T02:37:54;4.90;;;2.38;;
56419;SDS011;42323;52.170;7.538;2023-07-30T02:40:20;3.97;;;2.28;;
56419;SDS011;42323;52.170;7.538;2023-07-30T02:42:47;5.32;;;2.83;;
56419;SDS011;42323;52.170;7.538;2023-07-30T02:45:14;6.57;;;3.45;;
56419;SDS011;42323;52.170;7.538;2023-07-30T02:47:43;4.20;;;2.60;;
56419;SDS011;42323;52.170;7.538;2023-07-30T02:50:10;7.70;;;3.05;;
56419;SDS011;42323;52.170;7.538;2023-07-30T02:52:36;6.15;;;2.83;;
56419;SDS011;42323;52.170;7.538;2023-07-30T02:55:03;4.28;;;2.28;;
56419;SDS011;42323;52.170;7.538;2023-07-30T02:57:29;4.43;;;2.75;;
56419;SDS011;42323;52.170;7.538;2023-07-30T02:59:56;4.78;;;2.50;;
56419;SDS011;42323;52.170;7.538;2023-07-30T03:02:23;5.40;;;2.60;;
56419;SDS011;42323;52.170;7.538;2023-07-30T03:04:50;4.13;;;2.53;;
56419;SDS011;42323;52.170;7.538;2023-07-30T03:07:16;4.38;;;2.53;;
56419;SDS011;42323;52.170;7.538;2023-07-30T03:09:44;5.60;;;2.95;;
56419;SDS011;42323;52.170;7.538;2023-07-30T03:12:10;11.32;;;2.95;;
56419;SDS011;42323;52.170;7.538;2023-07-30T03:14:37;5.50;;;2.88;;
56419;SDS011;42323;52.170;7.538;2023-07-30T03:17:04;5.32;;;2.85;;
56419;SDS011;42323;52.170;7.538;2023-07-30T03:19:31;5.18;;;2.38;;
56419;SDS011;42323;52.170;7.538;2023-07-30T03:21:58;4.78;;;3.05;;
56419;SDS011;42323;52.170;7.538;2023-07-30T03:24:24;4.82;;;2.45;;
56419;SDS011;42323;52.170;7.538;2023-07-30T03:26:51;5.25;;;2.30;;
56419;SDS011;42323;52.170;7.538;2023-07-30T03:29:17;4.82;;;2.03;;
56419;SDS011;42323;52.170;7.538;2023-07-30T03:31:44;4.13;;;2.30;;
56419;SDS011;42323;52.170;7.538;2023-07-30T03:34:10;4.40;;;2.60;;
56419;SDS011;42323;52.170;7.538;2023-07-30T03:36:37;3.67;;;2.13;;
56419;SDS011;42323;52.170;7.538;2023-07-30T03:39:03;4.60;;;2.08;;
56419;SDS011;42323;52.170;7.538;2023-07-30T03:41:30;4.75;;;2.58;;
56419;SDS011;42323;52.170;7.538;2023-07-30T03:43:56;4.75;;;2.70;;
56419;SDS011;42323;52.170;7.538;2023-07-30T03:46:22;6.28;;;3.20;;
56419;SDS011;42323;52.170;7.538;2023-07-30T03:48:49;7.88;;;2.58;;
56419;SDS011;42323;52.170;7.538;2023-07-30T03:51:16;6.50;;;2.63;;
56419;SDS011;42323;52.170;7.538;2023-07-30T03:53:42;4.75;;;2.67;;
56419;SDS011;42323;52.170;7.538;2023-07-30T03:56:09;5.32;;;2.63;;
56419;SDS011;42323;52.170;7.538;2023-07-30T03:58:36;5.30;;;2.50;;
56419;SDS011;42323;52.170;7.538;2023-07-30T04:01:02;6.22;;;2.63;;
56419;SDS011;42323;52.170;7.538;2023-07-30T04:03:29;5.28;;;2.90;;
56419;SDS011;42323;52.170;7.538;2023-07-30T04:05:55;4.22;;;2.45;;
56419;SDS011;42323;52.170;7.538;2023-07-30T04:08:22;4.78;;;2.22;;
56419;SDS011;42323;52.170;7.538;2023-07-30T04:10:48;4.78;;;2.38;;
56419;SDS011;42323;52.170;7.538;2023-07-30T04:13:15;4.68;;;2.15;;
56419;SDS011;42323;52.170;7.538;2023-07-30T04:15:42;11.88;;;2.85;;
56419;SDS011;42323;52.170;7.538;2023-07-30T04:18:08;6.57;;;2.45;;
56419;SDS011;42323;52.170;7.538;2023-07-30T04:20:35;5.13;;;2.30;;
56419;SDS011;42323;52.170;7.538;2023-07-30T04:23:01;3.80;;;2.40;;
56419;SDS011;42323;52.170;7.538;2023-07-30T04:25:28;5.50;;;2.47;;
56419;SDS011;42323;52.170;7.538;2023-07-30T04:27:54;7.47;;;2.70;;
56419;SDS011;42323;52.170;7.538;2023-07-30T04:30:21;5.07;;;2.72;;
56419;SDS011;42323;52.170;7.538;2023-07-30T04:32:47;5.10;;;2.05;;
56419;SDS011;42323;52.170;7.538;2023-07-30T04:35:14;5.55;;;2.88;;
56419;SDS011;42323;52.170;7.538;2023-07-30T04:37:40;6.90;;;2.10;;
56419;SDS011;42323;52.170;7.538;2023-07-30T04:40:07;5.22;;;2.13;;
56419;SDS011;42323;52.170;7.538;2023-07-30T04:42:34;6.32;;;2.10;;
56419;SDS011;42323;52.170;7.538;2023-07-30T04:45:01;5.82;;;2.17;;
56419;SDS011;42323;52.170;7.538;2023-07-30T04:47:28;9.30;;;2.13;;
56419;SDS011;42323;52.170;7.538;2023-07-30T04:49:55;3.85;;;2.25;;
56419;SDS011;42323;52.170;7.538;2023-07-30T04:52:21;6.45;;;2.65;;
56419;SDS011;42323;52.170;7.538;2023-07-30T04:54:48;3.13;;;1.98;;
56419;SDS011;42323;52.170;7.538;2023-07-30T04:57:14;4.47;;;2.13;;
56419;SDS011;42323;52.170;7.538;2023-07-30T04:59:41;4.88;;;2.13;;
56419;SDS011;42323;52.170;7.538;2023-07-30T05:02:07;5.75;;;1.90;;
56419;SDS011;42323;52.170;7.538;2023-07-30T05:04:34;3.35;;;1.95;;
56419;SDS011;42323;52.170;7.538;2023-07-30T05:07:00;7.18;;;2.40;;
56419;SDS011;42323;52.170;7.538;2023-07-30T05:09:27;4.35;;;2.28;;
56419;SDS011;42323;52.170;7.538;2023-07-30T05:11:53;8.60;;;2.53;;
56419;SDS011;42323;52.170;7.538;2023-07-30T05:14:20;9.60;;;2.22;;
56419;SDS011;42323;52.170;7.538;2023-07-30T05:16:46;6.30;;;2.20;;
56419;SDS011;42323;52.170;7.538;2023-07-30T05:19:13;5.88;;;2.50;;
56419;SDS011;42323;52.170;7.538;2023-07-30T05:21:39;10.98;;;2.50;;
56419;SDS011;42323;52.170;7.538;2023-07-30T05:24:06;7.25;;;2.70;;
56419;SDS011;42323;52.170;7.538;2023-07-30T05:26:33;4.20;;;2.40;;
56419;SDS011;42323;52.170;7.538;2023-07-30T05:29:00;6.18;;;2.15;;
56419;SDS011;42323;52.170;7.538;2023-07-30T05:31:26;6.20;;;2.90;;
56419;SDS011;42323;52.170;7.538;2023-07-30T05:33:53;7.95;;;2.53;;
56419;SDS011;42323;52.170;7.538;2023-07-30T05:36:19;5.32;;;3.00;;
56419;SDS011;42323;52.170;7.538;2023-07-30T05:38:46;6.00;;;2.78;;
56419;SDS011;42323;52.170;7.538;2023-07-30T05:41:12;9.27;;;3.30;;
56419;SDS011;42323;52.170;7.538;2023-07-30T05:43:39;5.82;;;3.05;;
56419;SDS011;42323;52.170;7.538;2023-07-30T05:46:05;8.82;;;3.13;;
56419;SDS011;42323;52.170;7.538;2023-07-30T05:48:32;8.55;;;2.92;;
56419;SDS011;42323;52.170;7.538;2023-07-30T05:50:59;9.38;;;3.50;;
56419;SDS011;42323;52.170;7.538;2023-07-30T05:53:25;10.43;;;3.30;;
56419;SDS011;42323;52.170;7.538;2023-07-30T05:55:52;8.50;;;3.10;;
56419;SDS011;42323;52.170;7.538;2023-07-30T05:58:18;8.38;;;3.65;;
56419;SDS011;42323;52.170;7.538;2023-07-30T06:00:45;10.15;;;4.75;;
56419;SDS011;42323;52.170;7.538;2023-07-30T06:03:12;9.90;;;3.92;;
56419;SDS011;42323;52.170;7.538;2023-07-30T06:05:42;7.07;;;3.72;;
56419;SDS011;42323;52.170;7.538;2023-07-30T06:08:09;12.52;;;4.68;;
56419;SDS011;42323;52.170;7.538;2023-07-30T06:10:38;13.40;;;4.25;;
56419;SDS011;42323;52.170;7.538;2023-07-30T06:13:06;18.08;;;4.53;;
56419;SDS011;42323;52.170;7.538;2023-07-30T06:15:33;12.15;;;4.68;;
56419;SDS011;42323;52.170;7.538;2023-07-30T06:18:00;12.88;;;4.65;;
56419;SDS011;42323;52.170;7.538;2023-07-30T06:20:29;14.30;;;4.70;;
56419;SDS011;42323;52.170;7.538;2023-07-30T06:22:55;17.80;;;5.57;;
56419;SDS011;42323;52.170;7.538;2023-07-30T06:25:22;12.38;;;5.55;;
56419;SDS011;42323;52.170;7.538;2023-07-30T06:27:48;16.52;;;4.72;;
56419;SDS011;42323;52.170;7.538;2023-07-30T06:30:15;11.23;;;5.53;;
56419;SDS011;42323;52.170;7.538;2023-07-30T06:32:42;8.23;;;4.28;;
56419;SDS011;42323;52.170;7.538;2023-07-30T06:35:09;12.00;;;4.53;;
56419;SDS011;42323;52.170;7.538;2023-07-30T06:37:36;20.98;;;5.28;;
56419;SDS011;42323;52.170;7.538;2023-07-30T06:40:03;15.30;;;5.07;;
56419;SDS011;42323;52.170;7.538;2023-07-30T06:42:32;15.30;;;4.85;;
56419;SDS011;42323;52.170;7.538;2023-07-30T06:44:59;15.43;;;5.85;;
56419;SDS011;42323;52.170;7.538;2023-07-30T06:47:26;13.93;;;5.55;;
56419;SDS011;42323;52.170;7.538;2023-07-30T07:03:32;18.77;;;6.13;;
56419;SDS011;42323;52.170;7.538;2023-07-30T07:26:58;12.83;;;5.27;;
56419;SDS011;42323;52.170;7.538;2023-07-30T07:29:26;17.00;;;5.70;;
56419;SDS011;42323;52.170;7.538;2023-07-30T07:31:52;11.52;;;5.18;;
56419;SDS011;42323;52.170;7.538;2023-07-30T07:34:19;11.50;;;5.20;;
56419;SDS011;42323;52.170;7.538;2023-07-30T07:36:46;13.35;;;4.95;;
56419;SDS011;42323;52.170;7.538;2023-07-30T07:39:29;13.48;;;5.15;;
56419;SDS011;42323;52.170;7.538;2023-07-30T07:42:19;13.80;;;5.32;;
56419;SDS011;42323;52.170;7.538;2023-07-30T07:44:45;10.75;;;5.13;;
56419;SDS011;42323;52.170;7.538;2023-07-30T07:55:50;16.20;;;5.15;;
56419;SDS011;42323;52.170;7.538;2023-07-30T08:07:46;11.15;;;5.75;;
56419;SDS011;42323;52.170;7.538;2023-07-30T08:10:13;12.15;;;5.03;;
56419;SDS011;42323;52.170;7.538;2023-07-30T08:12:40;12.27;;;5.03;;
56419;SDS011;42323;52.170;7.538;2023-07-30T08:15:06;17.65;;;5.05;;
56419;SDS011;42323;52.170;7.538;2023-07-30T08:17:33;14.05;;;5.47;;
56419;SDS011;42323;52.170;7.538;2023-07-30T08:20:00;17.13;;;5.78;;
56419;SDS011;42323;52.170;7.538;2023-07-30T08:22:26;12.52;;;5.70;;
56419;SDS011;42323;52.170;7.538;2023-07-30T08:24:53;13.68;;;5.30;;
56419;SDS011;42323;52.170;7.538;2023-07-30T08:27:19;14.27;;;6.80;;
56419;SDS011;42323;52.170;7.538;2023-07-30T08:29:46;10.95;;;5.78;;
56419;SDS011;42323;52.170;7.538;2023-07-30T08:32:12;12.50;;;5.20;;
56419;SDS011;42323;52.170;7.538;2023-07-30T08:34:39;16.55;;;5.63;;
56419;SDS011;42323;52.170;7.538;2023-07-30T08:37:05;16.13;;;5.00;;
56419;SDS011;42323;52.170;7.538;2023-07-30T08:39:32;14.88;;;5.13;;
56419;SDS011;42323;52.170;7.538;2023-07-30T08:41:59;10.63;;;4.93;;
56419;SDS011;42323;52.170;7.538;2023-07-30T08:44:25;13.52;;;6.15;;
56419;SDS011;42323;52.170;7.538;2023-07-30T08:46:52;11.68;;;5.60;;
56419;SDS011;42323;52.170;7.538;2023-07-30T08:49:21;13.90;;;4.80;;
56419;SDS011;42323;52.170;7.538;2023-07-30T08:51:48;14.85;;;5.30;;
56419;SDS011;42323;52.170;7.538;2023-07-30T08:54:19;12.27;;;5.85;;
56419;SDS011;42323;52.170;7.538;2023-07-30T08:56:46;11.43;;;5.38;;
56419;SDS011;42323;52.170;7.538;2023-07-30T08:59:14;9.23;;;4.80;;
56419;SDS011;42323;52.170;7.538;2023-07-30T09:01:41;19.25;;;6.13;;
56419;SDS011;42323;52.170;7.538;2023-07-30T09:04:11;17.45;;;5.30;;
56419;SDS011;42323;52.170;7.538;2023-07-30T09:06:39;12.82;;;4.78;;
56419;SDS011;42323;52.170;7.538;2023-07-30T09:09:06;8.90;;;4.70;;
56419;SDS011;42323;52.170;7.538;2023-07-30T09:18:51;14.80;;;6.45;;
56419;SDS011;42323;52.170;7.538;2023-07-30T09:37:12;8.73;;;4.20;;
56419;SDS011;42323;52.170;7.538;2023-07-30T09:39:49;13.23;;;5.25;;
56419;SDS011;42323;52.170;7.538;2023-07-30T09:58:44;13.00;;;4.57;;
56419;SDS011;42323;52.170;7.538;2023-07-30T10:01:24;8.85;;;4.20;;
56419;SDS011;42323;52.170;7.538;2023-07-30T10:04:42;12.25;;;4.63;;
56419;SDS011;42323;52.170;7.538;2023-07-30T10:07:17;6.13;;;2.58;;
56419;SDS011;42323;52.170;7.538;2023-07-30T10:09:46;5.72;;;2.67;;
56419;SDS011;42323;52.170;7.538;2023-07-30T10:12:18;7.15;;;2.85;;
56419;SDS011;42323;52.170;7.538;2023-07-30T10:14:49;6.32;;;2.25;;
56419;SDS011;42323;52.170;7.538;2023-07-30T10:17:18;5.00;;;2.13;;
56419;SDS011;42323;52.170;7.538;2023-07-30T10:19:48;4.38;;;2.00;;
56419;SDS011;42323;52.170;7.538;2023-07-30T10:22:20;8.00;;;2.60;;
56419;SDS011;42323;52.170;7.538;2023-07-30T10:24:56;9.20;;;2.92;;
56419;SDS011;42323;52.170;7.538;2023-07-30T10:48:58;6.15;;;1.80;;
56419;SDS011;42323;52.170;7.538;2023-07-30T10:51:25;5.47;;;2.03;;
56419;SDS011;42323;52.170;7.538;2023-07-30T10:53:54;7.85;;;2.63;;
56419;SDS011;42323;52.170;7.538;2023-07-30T10:56:23;6.32;;;1.90;;
56419;SDS011;42323;52.170;7.538;2023-07-30T10:58:53;3.33;;;1.67;;
56419;SDS011;42323;52.170;7.538;2023-07-30T11:01:20;5.07;;;1.67;;
56419;SDS011;42323;52.170;7.538;2023-07-30T11:03:51;4.13;;;1.75;;
56419;SDS011;42323;52.170;7.538;2023-07-30T11:06:25;4.97;;;1.80;;
56419;SDS011;42323;52.170;7.538;2023-07-30T11:08:53;7.75;;;1.90;;
56419;SDS011;42323;52.170;7.538;2023-07-30T11:16:39;3.50;;;1.88;;
56419;SDS011;42323;52.170;7.538;2023-07-30T11:19:15;4.85;;;1.58;;
56419;SDS011;42323;52.170;7.538;2023-07-30T11:21:48;7.53;;;2.55;;
56419;SDS011;42323;52.170;7.538;2023-07-30T11:29:55;6.68;;;2.65;;
56419;SDS011;42323;52.170;7.538;2023-07-30T11:32:23;4.07;;;1.80;;
56419;SDS011;42323;52.170;7.538;2023-07-30T11:34:52;3.47;;;1.60;;
56419;SDS011;42323;52.170;7.538;2023-07-30T11:37:21;5.00;;;1.90;;
56419;SDS011;42323;52.170;7.538;2023-07-30T11:39:50;8.93;;;3.05;;
56419;SDS011;42323;52.170;7.538;2023-07-30T11:42:19;4.40;;;1.50;;
56419;SDS011;42323;52.170;7.538;2023-07-30T11:45:19;5.60;;;2.33;;
56419;SDS011;42323;52.170;7.538;2023-07-30T11:47:48;5.32;;;1.95;;
56419;SDS011;42323;52.170;7.538;2023-07-30T11:50:15;11.57;;;3.25;;
56419;SDS011;42323;52.170;7.538;2023-07-30T11:52:55;5.65;;;1.65;;
56419;SDS011;42323;52.170;7.538;2023-07-30T11:55:23;4.30;;;1.60;;
56419;SDS011;42323;52.170;7.538;2023-07-30T11:57:52;4.20;;;1.40;;
56419;SDS011;42323;52.170;7.538;2023-07-30T12:00:20;5.03;;;1.90;;
56419;SDS011;42323;52.170;7.538;2023-07-30T12:02:47;7.18;;;1.50;;
56419;SDS011;42323;52.170;7.538;2023-07-30T12:05:17;3.50;;;1.40;;
56419;SDS011;42323;52.170;7.538;2023-07-30T12:07:46;3.78;;;1.40;;
56419;SDS011;42323;52.170;7.538;2023-07-30T12:10:14;5.97;;;1.70;;
56419;SDS011;42323;52.170;7.538;2023-07-30T12:12:46;6.47;;;1.90;;
56419;SDS011;42323;52.170;7.538;2023-07-30T12:15:12;3.92;;;1.35;;
56419;SDS011;42323;52.170;7.538;2023-07-30T12:17:40;3.97;;;1.42;;
56419;SDS011;42323;52.170;7.538;2023-07-30T12:20:07;3.03;;;1.30;;
56419;SDS011;42323;52.170;7.538;2023-07-30T12:22:35;4.18;;;1.55;;
56419;SDS011;42323;52.170;7.538;2023-07-30T12:25:02;2.78;;;1.10;;
56419;SDS011;42323;52.170;7.538;2023-07-30T12:27:32;1.27;;;1.02;;
56419;SDS011;42323;52.170;7.538;2023-07-30T12:29:59;5.60;;;1.38;;
56419;SDS011;42323;52.170;7.538;2023-07-30T12:32:26;2.63;;;1.10;;
56419;SDS011;42323;52.170;7.538;2023-07-30T12:34:54;3.05;;;1.35;;
56419;SDS011;42323;52.170;7.538;2023-07-30T12:37:21;4.05;;;1.40;;
56419;SDS011;42323;52.170;7.538;2023-07-30T12:39:48;3.47;;;1.42;;
56419;SDS011;42323;52.170;7.538;2023-07-30T12:42:16;3.22;;;1.23;;
56419;SDS011;42323;52.170;7.538;2023-07-30T12:44:43;2.80;;;1.55;;
56419;SDS011;42323;52.170;7.538;2023-07-30T12:47:11;6.20;;;1.50;;
56419;SDS011;42323;52.170;7.538;2023-07-30T12:49:38;4.60;;;1.20;;
56419;SDS011;42323;52.170;7.538;2023-07-30T12:52:06;2.78;;;1.25;;
56419;SDS011;42323;52.170;7.538;2023-07-30T12:54:55;4.47;;;1.27;;
56419;SDS011;42323;52.170;7.538;2023-07-30T12:57:22;5.13;;;1.92;;
56419;SDS011;42323;52.170;7.538;2023-07-30T12:59:48;2.80;;;1.08;;
56419;SDS011;42323;52.170;7.538;2023-07-30T13:02:18;3.15;;;1.60;;
56419;SDS011;42323;52.170;7.538;2023-07-30T13:04:47;4.00;;;1.30;;
56419;SDS011;42323;52.170;7.538;2023-07-30T13:07:15;2.03;;;0.90;;
56419;SDS011;42323;52.170;7.538;2023-07-30T13:09:45;2.78;;;0.70;;
56419;SDS011;42323;52.170;7.538;2023-07-30T13:12:13;3.65;;;1.30;;
56419;SDS011;42323;52.170;7.538;2023-07-30T13:14:42;6.03;;;0.90;;
56419;SDS011;42323;52.170;7.538;2023-07-30T13:17:08;2.58;;;0.90;;
56419;SDS011;42323;52.170;7.538;2023-07-30T13:19:38;1.63;;;0.80;;
56419;SDS011;42323;52.170;7.538;2023-07-30T13:22:06;3.17;;;0.88;;
56419;SDS011;42323;52.170;7.538;2023-07-30T13:24:34;1.35;;;0.80;;
56419;SDS011;42323;52.170;7.538;2023-07-30T13:27:02;3.78;;;0.90;;
56419;SDS011;42323;52.170;7.538;2023-07-30T13:29:28;2.47;;;0.90;;
56419;SDS011;42323;52.170;7.538;2023-07-30T13:31:57;2.58;;;0.95;;
56419;SDS011;42323;52.170;7.538;2023-07-30T13:34:23;1.63;;;0.80;;
56419;SDS011;42323;52.170;7.538;2023-07-30T13:36:52;3.03;;;0.90;;
56419;SDS011;42323;52.170;7.538;2023-07-30T13:39:18;3.97;;;1.02;;
56419;SDS011;42323;52.170;7.538;2023-07-30T13:41:46;3.13;;;1.00;;
56419;SDS011;42323;52.170;7.538;2023-07-30T13:44:12;5.97;;;1.08;;
56419;SDS011;42323;52.170;7.538;2023-07-30T13:46:39;3.65;;;1.05;;
56419;SDS011;42323;52.170;7.538;2023-07-30T13:49:06;2.65;;;0.70;;
56419;SDS011;42323;52.170;7.538;2023-07-30T13:51:33;3.10;;;1.10;;
56419;SDS011;42323;52.170;7.538;2023-07-30T13:54:04;4.22;;;1.00;;
56419;SDS011;42323;52.170;7.538;2023-07-30T13:56:40;2.75;;;1.10;;
56419;SDS011;42323;52.170;7.538;2023-07-30T13:59:11;3.05;;;1.00;;
56419;SDS011;42323;52.170;7.538;2023-07-30T14:01:37;4.43;;;0.85;;
56419;SDS011;42323;52.170;7.538;2023-07-30T14:04:09;4.13;;;1.00;;
56419;SDS011;42323;52.170;7.538;2023-07-30T14:06:36;3.10;;;1.33;;
56419;SDS011;42323;52.170;7.538;2023-07-30T14:09:05;5.53;;;1.10;;
56419;SDS011;42323;52.170;7.538;2023-07-30T14:11:34;2.50;;;0.90;;
56419;SDS011;42323;52.170;7.538;2023-07-30T14:14:01;3.00;;;0.90;;
56419;SDS011;42323;52.170;7.538;2023-07-30T14:16:29;4.32;;;1.00;;
56419;SDS011;42323;52.170;7.538;2023-07-30T14:18:56;1.85;;;1.00;;
56419;SDS011;42323;52.170;7.538;2023-07-30T14:21:23;4.50;;;0.90;;
56419;SDS011;42323;52.170;7.538;2023-07-30T14:23:50;2.70;;;0.77;;
56419;SDS011;42323;52.170;7.538;2023-07-30T14:26:16;2.85;;;0.80;;
56419;SDS011;42323;52.170;7.538;2023-07-30T14:28:54;3.28;;;1.10;;
56419;SDS011;42323;52.170;7.538;2023-07-30T14:34:10;1.45;;;0.70;;
56419;SDS011;42323;52.170;7.538;2023-07-30T14:36:37;1.85;;;0.75;;
56419;SDS011;42323;52.170;7.538;2023-07-30T14:39:04;2.45;;;0.60;;
56419;SDS011;42323;52.170;7.538;2023-07-30T14:41:35;4.82;;;0.90;;
56419;SDS011;42323;52.170;7.538;2023-07-30T14:44:05;2.90;;;0.70;;
56419;SDS011;42323;52.170;7.538;2023-07-30T14:46:32;1.30;;;0.80;;
56419;SDS011;42323;52.170;7.538;2023-07-30T14:48:59;3.08;;;0.90;;
56419;SDS011;42323;52.170;7.538;2023-07-30T14:51:26;2.67;;;0.63;;
56419;SDS011;42323;52.170;7.538;2023-07-30T14:53:53;2.78;;;0.70;;
56419;SDS011;42323;52.170;7.538;2023-07-30T14:56:19;1.60;;;0.68;;
56419;SDS011;42323;52.170;7.538;2023-07-30T14:58:46;4.28;;;0.70;;
56419;SDS011;42323;52.170;7.538;2023-07-30T15:01:12;1.88;;;0.70;;
56419;SDS011;42323;52.170;7.538;2023-07-30T15:03:40;2.00;;;0.50;;
56419;SDS011;42323;52.170;7.538;2023-07-30T15:06:07;2.30;;;0.77;;
56419;SDS011;42323;52.170;7.538;2023-07-30T15:08:34;3.50;;;0.70;;
56419;SDS011;42323;52.170;7.538;2023-07-30T15:11:00;4.68;;;0.90;;
56419;SDS011;42323;52.170;7.538;2023-07-30T15:13:27;1.90;;;0.70;;
56419;SDS011;42323;52.170;7.538;2023-07-30T15:15:54;3.80;;;0.80;;
56419;SDS011;42323;52.170;7.538;2023-07-30T15:18:20;2.03;;;0.90;;
56419;SDS011;42323;52.170;7.538;2023-07-30T15:20:47;0.85;;;0.70;;
56419;SDS011;42323;52.170;7.538;2023-07-30T15:23:15;2.80;;;0.88;;
56419;SDS011;42323;52.170;7.538;2023-07-30T15:25:42;3.35;;;0.70;;
56419;SDS011;42323;52.170;7.538;2023-07-30T15:28:09;4.07;;;1.10;;
56419;SDS011;42323;52.170;7.538;2023-07-30T15:30:36;2.65;;;0.80;;
56419;SDS011;42323;52.170;7.538;2023-07-30T15:33:05;2.00;;;0.55;;
56419;SDS011;42323;52.170;7.538;2023-07-30T15:35:34;2.72;;;0.70;;
56419;SDS011;42323;52.170;7.538;2023-07-30T15:38:04;1.45;;;0.60;;
56419;SDS011;42323;52.170;7.538;2023-07-30T15:40:32;2.58;;;0.70;;
56419;SDS011;42323;52.170;7.538;2023-07-30T15:43:01;1.95;;;0.80;;
56419;SDS011;42323;52.170;7.538;2023-07-30T15:45:29;2.80;;;0.70;;
56419;SDS011;42323;52.170;7.538;2023-07-30T15:47:57;2.08;;;0.73;;
56419;SDS011;42323;52.170;7.538;2023-07-30T15:50:24;3.05;;;0.80;;
56419;SDS011;42323;52.170;7.538;2023-07-30T15:52:53;3.53;;;0.65;;
56419;SDS011;42323;52.170;7.538;2023-07-30T15:55:20;4.88;;;1.25;;
56419;SDS011;42323;52.170;7.538;2023-07-30T15:57:47;4.80;;;0.82;;
56419;SDS011;42323;52.170;7.538;2023-07-30T16:00:13;3.33;;;0.55;;
56419;SDS011;42323;52.170;7.538;2023-07-30T16:02:41;2.80;;;0.85;;
56419;SDS011;42323;52.170;7.538;2023-07-30T16:05:11;2.08;;;0.50;;
56419;SDS011;42323;52.170;7.538;2023-07-30T16:07:40;4.43;;;0.68;;
56419;SDS011;42323;52.170;7.538;2023-07-30T16:10:07;1.35;;;0.57;;
56419;SDS011;42323;52.170;7.538;2023-07-30T16:12:34;2.38;;;0.65;;
56419;SDS011;42323;52.170;7.538;2023-07-30T16:15:01;1.98;;;0.75;;
56419;SDS011;42323;52.170;7.538;2023-07-30T16:17:28;3.10;;;0.93;;
56419;SDS011;42323;52.170;7.538;2023-07-30T16:19:55;1.98;;;0.60;;
56419;SDS011;42323;52.170;7.538;2023-07-30T16:22:27;2.72;;;0.60;;
56419;SDS011;42323;52.170;7.538;2023-07-30T16:24:54;4.78;;;0.95;;
56419;SDS011;42323;52.170;7.538;2023-07-30T16:27:21;2.65;;;0.70;;
56419;SDS011;42323;52.170;7.538;2023-07-30T16:29:48;3.08;;;0.93;;
56419;SDS011;42323;52.170;7.538;2023-07-30T16:32:18;3.85;;;1.30;;
56419;SDS011;42323;52.170;7.538;2023-07-30T16:34:45;4.13;;;1.27;;
56419;SDS011;42323;52.170;7.538;2023-07-30T16:37:11;1.88;;;0.80;;
56419;SDS011;42323;52.170;7.538;2023-07-30T16:39:44;3.28;;;0.98;;
56419;SDS011;42323;52.170;7.538;2023-07-30T16:42:13;3.83;;;0.80;;
56419;SDS011;42323;52.170;7.538;2023-07-30T16:44:39;3.17;;;0.70;;
56419;SDS011;42323;52.170;7.538;2023-07-30T16:47:06;2.50;;;1.10;;
56419;SDS011;42323;52.170;7.538;2023-07-30T16:49:33;3.35;;;0.95;;
56419;SDS011;42323;52.170;7.538;2023-07-30T16:51:59;2.95;;;1.15;;
56419;SDS011;42323;52.170;7.538;2023-07-30T16:54:26;2.80;;;0.82;;
56419;SDS011;42323;52.170;7.538;2023-07-30T16:56:53;3.55;;;1.48;;